createdAt,value
2023-09-09T00:00:37.862Z,14.07
2023-09-09T00:03:05.046Z,13.48
2023-09-09T00:05:32.639Z,13.75
2023-09-09T00:07:59.354Z,14.18
2023-09-09T00:10:26.133Z,12.85
2023-09-09T00:12:52.837Z,14.00
2023-09-09T00:15:19.634Z,13.90
2023-09-09T00:17:46.446Z,13.45
2023-09-09T00:20:15.842Z,13.50
2023-09-09T00:22:42.547Z,13.18
2023-09-09T00:25:09.520Z,12.57
2023-09-09T00:27:36.330Z,13.82
2023-09-09T00:30:03.282Z,14.23
2023-09-09T00:32:30.017Z,13.02
2023-09-09T00:34:56.817Z,14.45
2023-09-09T00:37:23.531Z,13.88
2023-09-09T00:39:50.699Z,13.45
2023-09-09T00:42:17.388Z,13.52
2023-09-09T00:44:44.185Z,13.20
2023-09-09T00:47:11.206Z,13.68
2023-09-09T00:49:38.094Z,13.10
2023-09-09T00:52:05.214Z,12.98
2023-09-09T00:54:33.701Z,12.88
2023-09-09T00:57:04.311Z,12.10
2023-09-09T00:59:31.756Z,12.77
2023-09-09T01:01:58.756Z,12.38
2023-09-09T01:04:25.797Z,12.60
2023-09-09T01:06:53.391Z,13.10
2023-09-09T01:09:20.210Z,11.60
2023-09-09T01:11:46.931Z,12.30
2023-09-09T01:14:14.424Z,11.80
2023-09-09T01:16:43.151Z,11.50
2023-09-09T01:19:14.030Z,12.45
2023-09-09T01:24:08.767Z,11.85
2023-09-09T01:26:36.094Z,13.13
2023-09-09T01:29:03.091Z,11.68
2023-09-09T01:31:29.947Z,12.60
2023-09-09T01:33:58.032Z,11.43
2023-09-09T01:36:25.265Z,12.07
2023-09-09T01:38:51.998Z,12.40
2023-09-09T01:41:18.801Z,11.60
2023-09-09T01:43:45.598Z,11.82
2023-09-09T01:46:12.414Z,12.05
2023-09-09T01:48:39.314Z,12.55
2023-09-09T01:51:07.295Z,12.13
2023-09-09T01:53:34.145Z,11.68
2023-09-09T01:56:00.945Z,11.55
2023-09-09T01:58:27.741Z,12.52
2023-09-09T02:00:54.503Z,12.25
2023-09-09T02:03:21.620Z,11.35
2023-09-09T02:05:48.477Z,13.88
2023-09-09T02:08:15.207Z,16.00
2023-09-09T02:10:42.865Z,18.83
2023-09-09T02:13:09.650Z,18.08
2023-09-09T02:15:36.467Z,17.23
2023-09-09T02:18:03.961Z,17.85
2023-09-09T02:20:30.891Z,18.73
2023-09-09T02:22:57.628Z,20.80
2023-09-09T02:25:24.442Z,19.33
2023-09-09T02:27:51.342Z,20.10
2023-09-09T02:30:18.145Z,17.80
2023-09-09T02:32:45.448Z,19.65
2023-09-09T02:35:12.497Z,18.80
2023-09-09T02:37:39.294Z,18.98
2023-09-09T02:40:06.743Z,18.27
2023-09-09T02:42:33.509Z,16.50
2023-09-09T02:45:00.456Z,17.50
2023-09-09T02:47:27.243Z,17.27
2023-09-09T02:49:53.950Z,17.80
2023-09-09T02:52:21.818Z,17.92
2023-09-09T02:54:49.269Z,18.35
2023-09-09T02:57:16.021Z,16.67
2023-09-09T02:59:42.748Z,17.27
2023-09-09T03:02:09.851Z,15.90
2023-09-09T03:04:36.609Z,15.48
2023-09-09T03:07:03.521Z,15.80
2023-09-09T03:09:32.295Z,16.85
2023-09-09T03:11:59.145Z,14.77
2023-09-09T03:14:25.905Z,14.48
2023-09-09T03:16:52.954Z,14.30
2023-09-09T03:19:19.780Z,15.60
2023-09-09T03:21:47.632Z,15.10
2023-09-09T03:24:14.378Z,15.20
2023-09-09T03:26:41.208Z,14.32
2023-09-09T03:29:07.994Z,14.13
2023-09-09T03:31:35.497Z,14.75
2023-09-09T03:34:02.330Z,14.30
2023-09-09T03:36:29.076Z,16.48
2023-09-09T03:38:55.850Z,18.20
2023-09-09T03:41:22.722Z,17.42
2023-09-09T03:43:49.944Z,19.58
2023-09-09T03:46:16.844Z,19.50
2023-09-09T03:48:43.645Z,19.92
2023-09-09T03:51:10.372Z,19.33
2023-09-09T03:53:37.287Z,20.30
2023-09-09T03:56:05.011Z,19.38
2023-09-09T03:58:31.711Z,18.98
2023-09-09T04:01:09.214Z,19.83
2023-09-09T04:03:38.075Z,19.27
2023-09-09T04:06:07.790Z,20.17
2023-09-09T04:08:35.626Z,22.08
2023-09-09T04:11:02.903Z,20.85
2023-09-09T04:13:29.722Z,21.42
2023-09-09T04:15:57.651Z,20.60
2023-09-09T04:18:38.637Z,21.58
2023-09-09T04:21:11.327Z,22.05
2023-09-09T04:23:38.546Z,20.00
2023-09-09T04:26:05.600Z,21.05
2023-09-09T04:28:32.354Z,21.02
2023-09-09T04:30:59.139Z,12.10
2023-09-09T04:33:25.822Z,11.32
2023-09-09T04:35:52.562Z,10.98
2023-09-09T04:38:20.834Z,11.02
2023-09-09T04:40:47.673Z,10.88
2023-09-09T04:43:14.453Z,10.57
2023-09-09T04:45:41.180Z,10.57
2023-09-09T04:48:08.008Z,10.32
2023-09-09T04:50:34.940Z,10.32
2023-09-09T04:53:03.606Z,10.73
2023-09-09T04:55:30.498Z,10.23
2023-09-09T04:57:57.214Z,10.70
2023-09-09T05:00:23.934Z,10.65
2023-09-09T05:02:50.749Z,10.35
2023-09-09T05:05:17.815Z,11.45
2023-09-09T05:07:44.533Z,10.15
2023-09-09T05:10:11.287Z,10.40
2023-09-09T05:12:38.188Z,10.43
2023-09-09T05:15:08.022Z,10.10
2023-09-09T05:17:35.239Z,9.88
2023-09-09T05:20:02.088Z,10.25
2023-09-09T05:22:28.819Z,9.45
2023-09-09T05:24:55.569Z,11.30
2023-09-09T05:27:22.278Z,9.80
2023-09-09T05:29:48.997Z,10.90
2023-09-09T05:32:17.403Z,10.50
2023-09-09T05:34:44.298Z,10.75
2023-09-09T05:37:11.063Z,12.55
2023-09-09T05:39:37.778Z,11.43
2023-09-09T05:42:06.642Z,11.48
2023-09-09T05:44:36.347Z,12.57
2023-09-09T05:47:05.858Z,12.43
2023-09-09T05:49:39.377Z,12.70
2023-09-09T05:52:08.236Z,11.80
2023-09-09T05:54:35.174Z,13.63
2023-09-09T05:57:02.171Z,14.63
2023-09-09T05:59:28.960Z,15.30
2023-09-09T06:01:55.752Z,15.75
2023-09-09T06:04:22.718Z,16.38
2023-09-09T06:06:50.152Z,16.10
2023-09-09T06:09:17.115Z,15.45
2023-09-09T06:11:44.021Z,15.20
2023-09-09T06:14:10.809Z,14.50
2023-09-09T06:16:37.646Z,14.13
2023-09-09T06:19:04.552Z,13.50
2023-09-09T06:21:31.370Z,14.15
2023-09-09T06:23:58.083Z,13.48
2023-09-09T06:26:25.065Z,12.40
2023-09-09T06:28:52.180Z,11.95
2023-09-09T06:31:19.007Z,11.77
2023-09-09T06:33:45.990Z,11.82
2023-09-09T06:36:12.994Z,11.95
2023-09-09T06:38:39.766Z,11.43
2023-09-09T06:41:06.596Z,11.05
2023-09-09T06:43:35.414Z,13.43
2023-09-09T06:46:02.496Z,13.85
2023-09-09T06:48:31.235Z,12.60
2023-09-09T06:50:58.011Z,12.50
2023-09-09T06:53:25.834Z,11.73
2023-09-09T06:55:53.416Z,14.30
2023-09-09T06:58:20.128Z,14.45
2023-09-09T07:00:51.899Z,15.70
2023-09-09T07:03:19.898Z,15.25
2023-09-09T07:05:46.995Z,14.40
2023-09-09T07:08:13.790Z,16.98
2023-09-09T07:10:48.492Z,16.10
2023-09-09T07:13:15.219Z,15.90
2023-09-09T07:15:42.088Z,16.38
2023-09-09T07:18:08.884Z,20.88
2023-09-09T07:20:35.734Z,18.30
2023-09-09T07:23:02.523Z,19.20
2023-09-09T07:25:29.466Z,19.52
2023-09-09T07:27:56.291Z,17.83
2023-09-09T07:30:23.042Z,19.00
2023-09-09T07:32:50.514Z,17.25
2023-09-09T07:35:17.248Z,16.33
2023-09-09T07:37:44.330Z,17.23
2023-09-09T07:40:11.741Z,16.90
2023-09-09T07:42:38.441Z,16.90
2023-09-09T07:45:05.511Z,16.73
2023-09-09T07:47:32.198Z,17.98
2023-09-09T07:49:59.359Z,17.33
2023-09-09T07:52:26.153Z,17.65
2023-09-09T07:54:53.512Z,16.27
2023-09-09T07:57:20.215Z,15.60
2023-09-09T07:59:48.984Z,16.30
2023-09-09T08:02:15.820Z,15.90
2023-09-09T08:04:42.555Z,16.60
2023-09-09T08:07:09.719Z,16.45
2023-09-09T08:09:36.552Z,16.98
2023-09-09T08:12:03.529Z,15.73
2023-09-09T08:14:31.361Z,14.82
2023-09-09T08:16:58.171Z,13.73
2023-09-09T08:19:25.023Z,14.20
2023-09-09T08:21:52.646Z,14.95
2023-09-09T08:24:19.655Z,13.43
2023-09-09T08:26:46.379Z,14.32
2023-09-09T08:29:13.089Z,13.02
2023-09-09T08:31:39.909Z,13.32
2023-09-09T08:34:06.624Z,12.60
2023-09-09T08:36:33.783Z,11.98
2023-09-09T08:39:00.634Z,11.93
2023-09-09T08:41:39.796Z,11.48
2023-09-09T08:44:26.650Z,11.20
2023-09-09T08:46:55.037Z,11.13
2023-09-09T08:49:25.061Z,11.00
2023-09-09T08:52:16.416Z,11.38
2023-09-09T08:54:44.215Z,10.80
2023-09-09T08:57:11.191Z,11.63
2023-09-09T08:59:39.973Z,10.43
2023-09-09T09:02:10.028Z,11.23
2023-09-09T09:04:38.176Z,10.43
2023-09-09T09:07:06.183Z,11.43
2023-09-09T09:09:33.011Z,9.57
2023-09-09T09:12:03.367Z,10.80
2023-09-09T09:14:30.512Z,11.25
2023-09-09T09:16:57.331Z,11.07
2023-09-09T09:19:31.780Z,10.93
2023-09-09T09:21:59.291Z,12.23
2023-09-09T09:24:27.961Z,11.13
2023-09-09T09:27:00.039Z,10.65
2023-09-09T09:29:39.763Z,10.77
2023-09-09T09:32:06.764Z,10.13
2023-09-09T09:34:35.164Z,11.05
2023-09-09T09:37:13.737Z,9.82
2023-09-09T09:39:40.690Z,9.73
2023-09-09T09:42:11.056Z,10.13
2023-09-09T09:47:07.160Z,8.35
2023-09-09T09:49:43.928Z,8.23
2023-09-09T09:52:10.953Z,8.13
2023-09-09T09:54:39.728Z,8.15
2023-09-09T09:57:07.146Z,9.10
2023-09-09T09:59:37.831Z,7.57
2023-09-09T10:02:04.752Z,8.45
2023-09-09T10:04:47.204Z,7.32
2023-09-09T10:07:18.791Z,8.15
2023-09-09T10:09:57.152Z,8.27
2023-09-09T10:12:47.680Z,7.85
2023-09-09T10:15:17.202Z,7.72
2023-09-09T10:17:45.822Z,7.22
2023-09-09T10:20:13.162Z,8.02
2023-09-09T10:22:43.284Z,7.28
2023-09-09T10:25:12.363Z,7.80
2023-09-09T10:27:41.408Z,7.72
2023-09-09T10:30:09.578Z,8.07
2023-09-09T10:32:37.367Z,7.55
2023-09-09T10:35:08.565Z,7.40
2023-09-09T10:37:37.313Z,7.60
2023-09-09T10:40:05.987Z,7.30
2023-09-09T10:42:36.013Z,7.10
2023-09-09T10:45:31.676Z,6.90
2023-09-09T10:48:07.075Z,7.30
2023-09-09T10:50:48.253Z,6.90
2023-09-09T10:53:25.630Z,6.50
2023-09-09T10:56:13.705Z,7.05
2023-09-09T10:58:40.622Z,7.40
2023-09-09T11:01:08.095Z,7.03
2023-09-09T11:03:50.408Z,6.15
2023-09-09T11:06:22.049Z,6.45
2023-09-09T11:08:49.426Z,6.68
2023-09-09T11:11:36.280Z,6.57
2023-09-09T11:14:05.360Z,6.32
2023-09-09T11:16:35.987Z,6.70
2023-09-09T11:24:03.756Z,5.88
2023-09-09T11:26:31.413Z,5.68
2023-09-09T11:28:58.674Z,5.57
2023-09-09T11:31:28.183Z,5.15
2023-09-09T11:33:58.606Z,4.63
2023-09-09T11:36:25.999Z,4.50
2023-09-09T11:38:54.634Z,4.88
2023-09-09T11:41:23.143Z,4.88
2023-09-09T11:44:07.342Z,5.25
2023-09-09T11:46:39.804Z,5.85
2023-09-09T11:49:07.542Z,5.00
2023-09-09T11:51:36.287Z,5.10
2023-09-09T11:54:04.456Z,5.03
2023-09-09T11:56:34.238Z,5.10
2023-09-09T11:59:10.584Z,4.90
2023-09-09T12:01:55.295Z,4.80
2023-09-09T12:04:22.092Z,4.53
2023-09-09T12:06:51.818Z,5.22
2023-09-09T12:09:19.284Z,4.50
2023-09-09T12:11:46.181Z,4.90
2023-09-09T12:14:14.598Z,4.50
2023-09-09T12:16:43.427Z,5.57
2023-09-09T12:19:17.502Z,4.88
2023-09-09T12:21:50.145Z,4.60
2023-09-09T12:24:17.121Z,4.93
2023-09-09T12:26:54.591Z,4.72
2023-09-09T12:29:21.840Z,4.72
2023-09-09T12:31:56.152Z,4.75
2023-09-09T12:34:25.195Z,4.80
2023-09-09T12:36:57.537Z,4.88
2023-09-09T12:39:31.973Z,4.57
2023-09-09T12:42:02.245Z,4.47
2023-09-09T12:44:31.844Z,4.30
2023-09-09T12:46:58.746Z,4.47
2023-09-09T12:49:28.807Z,4.80
2023-09-09T12:51:55.627Z,4.78
2023-09-09T12:54:22.515Z,5.10
2023-09-09T12:56:49.241Z,4.32
2023-09-09T12:59:15.962Z,5.03
2023-09-09T13:01:42.716Z,5.15
2023-09-09T13:04:09.563Z,4.65
2023-09-09T13:06:36.307Z,4.60
2023-09-09T13:09:03.593Z,4.70
2023-09-09T13:11:31.003Z,4.60
2023-09-09T13:14:07.241Z,4.50
2023-09-09T13:16:43.091Z,4.80
2023-09-09T13:19:10.096Z,4.50
2023-09-09T13:21:36.770Z,4.75
2023-09-09T13:24:04.704Z,4.25
2023-09-09T13:26:31.493Z,4.30
2023-09-09T13:28:58.225Z,4.38
2023-09-09T13:31:24.940Z,4.80
2023-09-09T13:33:51.807Z,4.60
2023-09-09T13:36:18.568Z,4.43
2023-09-09T13:38:46.751Z,3.97
2023-09-09T13:41:13.481Z,4.60
2023-09-09T13:43:41.174Z,5.18
2023-09-09T13:46:08.068Z,4.32
2023-09-09T13:48:35.065Z,4.43
2023-09-09T13:51:01.894Z,4.47
2023-09-09T13:53:28.602Z,5.00
2023-09-09T13:55:57.339Z,5.10
2023-09-09T13:58:24.049Z,4.78
2023-09-09T14:00:53.878Z,4.85
2023-09-09T14:03:21.028Z,5.13
2023-09-09T14:05:47.943Z,4.53
2023-09-09T14:08:14.728Z,4.68
2023-09-09T14:10:41.401Z,4.97
2023-09-09T14:13:08.096Z,4.60
2023-09-09T14:15:34.941Z,5.50
2023-09-09T14:18:01.756Z,4.63
2023-09-09T14:20:28.652Z,5.13
2023-09-09T14:22:55.384Z,4.72
2023-09-09T14:25:22.146Z,4.80
2023-09-09T14:27:48.822Z,5.70
2023-09-09T14:30:15.751Z,5.13
2023-09-09T14:32:42.686Z,5.28
2023-09-09T14:35:09.719Z,5.78
2023-09-09T14:37:36.501Z,5.38
2023-09-09T14:40:04.517Z,4.47
2023-09-09T14:42:32.380Z,5.22
2023-09-09T14:44:59.081Z,5.45
2023-09-09T14:47:25.804Z,5.10
2023-09-09T14:49:52.607Z,5.20
2023-09-09T14:52:19.435Z,5.13
2023-09-09T14:54:46.160Z,5.43
2023-09-09T14:57:12.864Z,5.70
2023-09-09T14:59:39.557Z,4.82
2023-09-09T15:02:06.945Z,5.03
2023-09-09T15:04:34.306Z,4.93
2023-09-09T15:07:01.113Z,4.90
2023-09-09T15:09:27.804Z,5.10
2023-09-09T15:11:55.039Z,6.07
2023-09-09T15:14:21.885Z,5.20
2023-09-09T15:16:50.641Z,4.80
2023-09-09T15:19:19.014Z,5.15
2023-09-09T15:21:45.957Z,5.47
2023-09-09T15:24:13.168Z,5.07
2023-09-09T15:26:40.106Z,6.25
2023-09-09T15:29:07.622Z,4.88
2023-09-09T15:31:35.338Z,17.60
2023-09-09T15:34:02.711Z,6.13
2023-09-09T15:36:29.633Z,8.50
2023-09-09T15:38:56.906Z,5.50
2023-09-09T15:41:24.401Z,6.18
2023-09-09T15:43:52.141Z,6.85
2023-09-09T15:46:19.313Z,6.93
2023-09-09T15:48:46.165Z,17.10
2023-09-09T15:51:13.004Z,6.45
2023-09-09T15:53:39.846Z,5.20
2023-09-09T15:56:12.525Z,5.53
2023-09-09T15:58:40.803Z,8.55
2023-09-09T16:01:08.166Z,8.23
2023-09-09T16:03:37.728Z,5.43
2023-09-09T16:06:09.095Z,7.13
2023-09-09T16:08:38.817Z,5.68
2023-09-09T16:11:06.387Z,5.80
2023-09-09T16:13:33.985Z,5.28
2023-09-09T16:16:09.732Z,7.07
2023-09-09T16:18:41.683Z,6.30
2023-09-09T16:21:09.020Z,5.13
2023-09-09T16:23:35.800Z,5.68
2023-09-09T16:26:02.492Z,5.30
2023-09-09T16:28:29.309Z,4.90
2023-09-09T16:30:56.088Z,5.43
2023-09-09T16:33:23.592Z,5.40
2023-09-09T16:35:50.506Z,6.13
2023-09-09T16:38:17.278Z,5.30
2023-09-09T16:40:45.640Z,5.05
2023-09-09T16:43:12.520Z,5.03
2023-09-09T16:45:40.744Z,6.00
2023-09-09T16:48:12.040Z,5.85
2023-09-09T16:50:39.340Z,5.45
2023-09-09T16:53:08.648Z,5.93
2023-09-09T16:55:35.632Z,5.47
2023-09-09T16:58:02.409Z,5.10
2023-09-09T17:00:29.254Z,5.50
2023-09-09T17:02:56.066Z,5.43
2023-09-09T17:05:23.050Z,5.28
2023-09-09T17:07:50.544Z,5.10
2023-09-09T17:10:17.415Z,5.03
2023-09-09T17:12:44.604Z,5.45
2023-09-09T17:15:11.439Z,5.68
2023-09-09T17:17:38.174Z,5.60
2023-09-09T17:20:05.495Z,6.00
2023-09-09T17:22:32.283Z,6.18
2023-09-09T17:24:59.090Z,5.30
2023-09-09T17:27:25.779Z,5.38
2023-09-09T17:29:52.547Z,5.70
2023-09-09T17:32:19.347Z,5.53
2023-09-09T17:34:46.156Z,5.78
2023-09-09T17:37:12.959Z,5.85
2023-09-09T17:39:39.806Z,6.10
2023-09-09T17:42:06.895Z,6.60
2023-09-09T17:44:33.750Z,6.40
2023-09-09T17:47:00.622Z,6.22
2023-09-09T17:49:28.646Z,6.00
2023-09-09T17:51:55.677Z,5.97
2023-09-09T17:54:26.456Z,5.50
2023-09-09T17:56:55.094Z,5.47
2023-09-09T17:59:22.362Z,5.55
2023-09-09T18:01:50.042Z,5.45
2023-09-09T18:04:17.502Z,5.70
2023-09-09T18:06:44.377Z,5.50
2023-09-09T18:09:11.364Z,5.65
2023-09-09T18:11:38.205Z,6.15
2023-09-09T18:14:05.024Z,5.93
2023-09-09T18:16:32.617Z,6.53
2023-09-09T18:19:00.054Z,6.97
2023-09-09T18:21:27.079Z,6.40
2023-09-09T18:23:56.626Z,6.22
2023-09-09T18:26:24.472Z,6.10
2023-09-09T18:28:51.440Z,6.85
2023-09-09T18:31:20.356Z,5.43
2023-09-09T18:33:47.537Z,6.00
2023-09-09T18:36:14.360Z,6.25
2023-09-09T18:38:43.281Z,5.85
2023-09-09T18:41:11.111Z,5.95
2023-09-09T18:43:38.022Z,6.53
2023-09-09T18:46:05.324Z,6.50
2023-09-09T18:48:32.267Z,6.35
2023-09-09T18:50:59.032Z,6.13
2023-09-09T18:53:26.945Z,6.43
2023-09-09T18:55:54.353Z,7.20
2023-09-09T18:58:22.337Z,8.48
2023-09-09T19:00:53.117Z,7.53
2023-09-09T19:05:48.792Z,8.98
2023-09-09T19:08:16.056Z,10.98
2023-09-09T19:10:42.844Z,12.80
2023-09-09T19:13:12.210Z,13.20
2023-09-09T19:15:39.491Z,14.88
2023-09-09T19:18:06.941Z,16.65
2023-09-09T19:20:34.090Z,11.70
2023-09-09T19:23:00.891Z,13.77
2023-09-09T19:25:27.662Z,14.98
2023-09-09T19:27:54.379Z,27.40
2023-09-09T19:30:21.202Z,25.25
2023-09-09T19:32:48.211Z,20.70
2023-09-09T19:35:15.103Z,20.42
2023-09-09T19:37:41.868Z,21.00
2023-09-09T19:40:09.750Z,19.90
2023-09-09T19:42:36.531Z,19.85
2023-09-09T19:45:14.673Z,21.05
2023-09-09T19:47:41.602Z,20.05
2023-09-09T19:50:09.104Z,15.98
2023-09-09T19:52:36.039Z,17.27
2023-09-09T19:55:03.332Z,19.52
2023-09-09T19:57:30.047Z,17.90
2023-09-09T19:59:57.405Z,18.35
2023-09-09T20:02:24.284Z,19.95
2023-09-09T20:04:51.318Z,18.60
2023-09-09T20:07:18.044Z,18.35
2023-09-09T20:09:44.873Z,15.50
2023-09-09T20:12:14.108Z,22.80
2023-09-09T20:14:40.924Z,24.63
2023-09-09T20:17:07.738Z,27.50
2023-09-09T20:19:34.467Z,24.33
2023-09-09T20:22:01.816Z,21.50
2023-09-09T20:24:28.994Z,19.50
2023-09-09T20:26:55.755Z,19.73
2023-09-09T20:29:22.445Z,17.20
2023-09-09T20:31:50.441Z,16.95
2023-09-09T20:34:17.201Z,17.73
2023-09-09T20:36:43.900Z,18.38
2023-09-09T20:39:10.617Z,18.88
2023-09-09T20:41:37.358Z,23.27
2023-09-09T20:44:04.382Z,25.30
2023-09-09T20:46:31.351Z,22.83
2023-09-09T20:48:59.345Z,25.02
2023-09-09T20:51:26.103Z,26.23
2023-09-09T20:53:52.981Z,23.42
2023-09-09T20:56:20.293Z,23.25
2023-09-09T20:58:47.173Z,21.88
2023-09-09T21:01:13.980Z,21.20
2023-09-09T21:03:41.129Z,21.60
2023-09-09T21:06:08.473Z,18.75
2023-09-09T21:08:35.307Z,18.73
2023-09-09T21:11:02.145Z,18.23
2023-09-09T21:13:29.079Z,16.88
2023-09-09T21:15:55.970Z,16.73
2023-09-09T21:18:22.669Z,14.55
2023-09-09T21:20:49.369Z,16.25
2023-09-09T21:23:16.195Z,18.70
2023-09-09T21:25:43.067Z,19.20
2023-09-09T21:28:09.946Z,19.80
2023-09-09T21:30:36.941Z,17.77
2023-09-09T21:33:06.070Z,17.73
2023-09-09T21:35:32.943Z,17.67
2023-09-09T21:37:59.715Z,16.30
2023-09-09T21:40:26.501Z,15.93
2023-09-09T21:42:53.262Z,22.20
2023-09-09T21:45:22.671Z,18.88
2023-09-09T21:50:17.547Z,16.25
2023-09-09T21:52:44.478Z,16.65
2023-09-09T21:55:11.169Z,17.45
2023-09-09T21:57:37.954Z,17.17
2023-09-09T22:00:20.646Z,16.88
2023-09-09T22:02:49.570Z,17.05
2023-09-09T22:05:17.162Z,16.83
2023-09-09T22:07:45.037Z,17.90
2023-09-09T22:10:11.807Z,16.45
2023-09-09T22:12:39.446Z,15.88
2023-09-09T22:15:08.057Z,15.20
2023-09-09T22:17:38.745Z,14.32
2023-09-09T22:20:12.671Z,12.85
2023-09-09T22:22:40.823Z,13.63
2023-09-09T22:25:12.398Z,14.25
2023-09-09T22:27:39.211Z,14.18
2023-09-09T22:30:06.829Z,14.82
2023-09-09T22:32:34.374Z,14.40
2023-09-09T22:35:07.659Z,13.20
2023-09-09T22:37:40.264Z,13.93
2023-09-09T22:40:09.920Z,13.60
2023-09-09T22:42:36.646Z,13.77
2023-09-09T22:45:04.120Z,14.10
2023-09-09T22:47:30.911Z,13.63
2023-09-09T22:49:57.823Z,14.80
2023-09-09T22:52:24.532Z,13.85
2023-09-09T22:54:52.606Z,13.32
2023-09-09T22:57:19.510Z,14.70
2023-09-09T22:59:46.272Z,12.88
2023-09-09T23:02:13.025Z,13.45
2023-09-09T23:04:40.042Z,11.93
2023-09-09T23:07:06.891Z,12.82
2023-09-09T23:09:33.642Z,12.57
2023-09-09T23:12:00.956Z,12.90
2023-09-09T23:14:28.041Z,13.10
2023-09-09T23:16:54.974Z,13.15
2023-09-09T23:19:21.767Z,11.63
2023-09-09T23:21:48.533Z,12.73
2023-09-09T23:24:15.264Z,12.75
2023-09-09T23:26:41.946Z,11.55
2023-09-09T23:29:08.864Z,12.55
2023-09-09T23:31:35.914Z,12.10
2023-09-09T23:34:03.245Z,11.52
2023-09-09T23:36:30.241Z,10.85
2023-09-09T23:38:57.256Z,11.45
2023-09-09T23:41:24.024Z,12.30
2023-09-09T23:43:50.772Z,11.73
2023-09-09T23:46:17.562Z,12.80
2023-09-09T23:48:44.377Z,12.35
2023-09-09T23:51:11.123Z,11.40
2023-09-09T23:53:37.870Z,11.43
2023-09-09T23:56:06.810Z,11.10
2023-09-09T23:58:34.013Z,10.80
